Time;durP1;ratioP1;P1;durP2;ratioP2;P2;SDS_P1;SDS_P2;PMS_P1;PMS_P2;Temp;Humidity;BMP_temperature;BMP_pressure;BME280_temperature;BME280_humidity;BME280_pressure;Samples;Min_cycle;Max_cycle;Signal;HPM_P1;HPM_P2
2022/03/15 00:01:27;;;;;;;76.30;33.78;;;;;;;;;;5114686;28;20048;-83
2022/03/15 00:04:12;;;;;;;91.88;35.08;;;;;;;;;;5114303;28;20485;-82
2022/03/15 00:06:59;;;;;;;101.45;36.83;;;;;;;;;;5115027;28;20044;-83
2022/03/15 00:09:44;;;;;;;99.63;39.65;;;;;;;;;;5114823;28;20479;-82
2022/03/15 00:12:30;;;;;;;99.93;40.13;;;;;;;;;;5121923;28;20469;-81
2022/03/15 00:15:15;;;;;;;85.13;34.58;;;;;;;;;;5133082;28;20408;-82
2022/03/15 00:18:02;;;;;;;116.00;41.67;;;;;;;;;;5117185;28;20055;-83
2022/03/15 00:20:47;;;;;;;164.98;54.65;;;;;;;;;;5117388;28;20047;-83
2022/03/15 00:23:33;;;;;;;145.68;50.85;;;;;;;;;;5117279;28;20039;-83
2022/03/15 00:26:18;;;;;;;134.20;45.38;;;;;;;;;;5117497;28;20043;-83
2022/03/15 00:29:04;;;;;;;92.00;37.10;;;;;;;;;;5116956;28;20044;-83
2022/03/15 00:31:49;;;;;;;92.85;37.25;;;;;;;;;;5108509;28;20043;-84
2022/03/15 00:34:34;;;;;;;87.57;33.72;;;;;;;;;;5117166;28;20036;-82
2022/03/15 00:37:20;;;;;;;67.07;30.05;;;;;;;;;;5116572;28;20039;-83
2022/03/15 00:40:06;;;;;;;82.18;36.25;;;;;;;;;;5119555;28;20044;-84
2022/03/15 00:42:53;;;;;;;93.82;37.03;;;;;;;;;;5122446;28;20055;-84
2022/03/15 00:45:43;;;;;;;84.63;35.83;;;;;;;;;;5121633;28;20036;-83
2022/03/15 00:48:31;;;;;;;92.80;37.75;;;;;;;;;;5121889;28;20039;-83
2022/03/15 00:51:16;;;;;;;86.22;38.72;;;;;;;;;;5107178;28;20476;-83
2022/03/15 00:54:02;;;;;;;91.63;35.45;;;;;;;;;;5122099;28;20052;-83
2022/03/15 00:56:47;;;;;;;81.70;35.15;;;;;;;;;;5129140;28;20043;-83
2022/03/15 00:59:33;;;;;;;79.13;35.05;;;;;;;;;;5122574;28;20040;-83
2022/03/15 01:02:18;;;;;;;91.93;37.67;;;;;;;;;;5132773;28;20051;-83
2022/03/15 01:05:04;;;;;;;92.03;37.35;;;;;;;;;;5108806;28;20043;-83
2022/03/15 01:07:50;;;;;;;86.22;34.67;;;;;;;;;;5116313;28;20044;-83
2022/03/15 01:10:35;;;;;;;98.88;38.63;;;;;;;;;;5116200;28;20043;-83
2022/03/15 01:13:20;;;;;;;90.47;37.28;;;;;;;;;;5116315;28;20051;-83
2022/03/15 01:16:06;;;;;;;86.53;35.75;;;;;;;;;;5100538;28;20408;-82
2022/03/15 01:18:51;;;;;;;88.45;32.95;;;;;;;;;;5116321;28;20052;-83
2022/03/15 01:21:38;;;;;;;57.22;24.05;;;;;;;;;;5115888;28;20044;-82
2022/03/15 01:24:23;;;;;;;60.28;21.92;;;;;;;;;;5116564;28;20036;-83
2022/03/15 01:27:08;;;;;;;62.28;24.33;;;;;;;;;;5100563;28;20052;-83
2022/03/15 01:29:57;;;;;;;88.00;32.40;;;;;;;;;;5115709;28;20384;-83
2022/03/15 01:32:42;;;;;;;74.22;29.83;;;;;;;;;;5115890;28;20047;-82
2022/03/15 01:35:28;;;;;;;92.70;30.13;;;;;;;;;;5107142;28;20047;-82
2022/03/15 01:38:14;;;;;;;63.58;22.27;;;;;;;;;;5115588;28;20048;-82
2022/03/15 01:41:00;;;;;;;34.05;17.08;;;;;;;;;;5107303;28;20043;-82
2022/03/15 01:43:47;;;;;;;75.35;27.50;;;;;;;;;;5116123;28;20384;-82
2022/03/15 01:46:34;;;;;;;46.85;20.05;;;;;;;;;;5106886;28;20039;-82
2022/03/15 01:49:19;;;;;;;46.88;21.05;;;;;;;;;;5115422;28;20035;-82
2022/03/15 01:52:09;;;;;;;53.05;22.25;;;;;;;;;;5115349;28;20044;-82
2022/03/15 01:54:55;;;;;;;57.13;23.33;;;;;;;;;;5100094;28;20075;-82
2022/03/15 01:57:40;;;;;;;56.75;22.15;;;;;;;;;;5114864;28;20043;-82
2022/03/15 02:00:26;;;;;;;81.75;30.23;;;;;;;;;;5106816;28;20039;-82
2022/03/15 02:03:11;;;;;;;95.05;33.25;;;;;;;;;;5114739;28;20047;-82
2022/03/15 02:05:56;;;;;;;87.45;30.73;;;;;;;;;;5115011;28;20036;-82
2022/03/15 02:08:42;;;;;;;89.70;31.15;;;;;;;;;;5115142;28;20043;-82
2022/03/15 02:11:28;;;;;;;96.07;33.42;;;;;;;;;;5114613;28;20036;-82
2022/03/15 02:14:14;;;;;;;118.50;43.00;;;;;;;;;;5114679;28;20047;-82
2022/03/15 02:16:59;;;;;;;87.57;34.40;;;;;;;;;;5114558;28;20048;-82
2022/03/15 02:19:45;;;;;;;82.20;34.25;;;;;;;;;;5114814;28;20468;-80
2022/03/15 02:22:30;;;;;;;56.25;25.27;;;;;;;;;;5098655;28;20040;-81
2022/03/15 02:25:16;;;;;;;66.65;27.73;;;;;;;;;;5114643;28;20044;-83
2022/03/15 02:28:02;;;;;;;69.80;27.55;;;;;;;;;;5114942;28;20043;-81
2022/03/15 02:30:47;;;;;;;108.78;39.17;;;;;;;;;;5117209;28;20039;-83
2022/03/15 02:33:33;;;;;;;96.68;35.22;;;;;;;;;;5140205;28;20039;-81
2022/03/15 02:36:18;;;;;;;74.97;30.67;;;;;;;;;;5113956;28;20482;-82
2022/03/15 02:39:04;;;;;;;81.15;29.73;;;;;;;;;;5114531;28;20488;-82
2022/03/15 02:41:50;;;;;;;76.95;31.15;;;;;;;;;;5114323;28;20043;-81
2022/03/15 02:44:37;;;;;;;61.97;26.27;;;;;;;;;;5114358;28;20048;-82
2022/03/15 02:47:22;;;;;;;54.88;24.98;;;;;;;;;;5114997;28;20412;-82
2022/03/15 02:50:08;;;;;;;60.20;25.15;;;;;;;;;;5114448;28;20044;-82
2022/03/15 02:52:54;;;;;;;57.67;25.13;;;;;;;;;;5113680;28;20484;-83
2022/03/15 02:55:39;;;;;;;47.45;23.92;;;;;;;;;;5114312;28;20408;-82
2022/03/15 02:58:25;;;;;;;49.72;23.42;;;;;;;;;;5113774;28;20043;-82
2022/03/15 03:01:10;;;;;;;55.55;24.25;;;;;;;;;;5114333;28;20035;-82
2022/03/15 03:03:56;;;;;;;54.70;24.58;;;;;;;;;;5114231;28;20048;-82
2022/03/15 03:06:43;;;;;;;60.22;27.48;;;;;;;;;;5114462;28;20039;-82
2022/03/15 03:09:29;;;;;;;71.38;28.02;;;;;;;;;;5099211;28;20473;-83
2022/03/15 03:12:15;;;;;;;59.28;27.00;;;;;;;;;;5114098;28;20047;-83
2022/03/15 03:15:01;;;;;;;53.03;25.33;;;;;;;;;;5113900;28;20473;-83
2022/03/15 03:17:46;;;;;;;54.90;25.35;;;;;;;;;;5113790;28;20485;-82
2022/03/15 03:20:32;;;;;;;113.30;38.83;;;;;;;;;;5114147;28;20047;-83
2022/03/15 03:23:17;;;;;;;76.25;28.80;;;;;;;;;;5113986;28;20480;-82
2022/03/15 03:26:03;;;;;;;77.90;28.23;;;;;;;;;;5114115;28;20485;-83
2022/03/15 03:28:48;;;;;;;69.07;25.85;;;;;;;;;;5113872;28;20047;-83
2022/03/15 03:31:34;;;;;;;57.13;25.17;;;;;;;;;;5113836;28;20032;-83
2022/03/15 03:34:19;;;;;;;53.05;23.45;;;;;;;;;;5113819;28;20051;-83
2022/03/15 03:37:05;;;;;;;49.08;21.88;;;;;;;;;;5114055;28;20043;-83
2022/03/15 03:39:51;;;;;;;61.90;24.67;;;;;;;;;;5113633;28;20032;-82
2022/03/15 03:42:37;;;;;;;54.45;22.00;;;;;;;;;;5113860;28;20043;-82
2022/03/15 03:45:23;;;;;;;63.88;25.73;;;;;;;;;;5113822;28;20043;-83
2022/03/15 03:48:12;;;;;;;42.70;20.90;;;;;;;;;;5117186;28;20393;-82
2022/03/15 03:50:58;;;;;;;54.53;24.13;;;;;;;;;;5102710;28;20047;-84
2022/03/15 03:53:43;;;;;;;64.45;27.50;;;;;;;;;;5117832;28;20040;-82
2022/03/15 03:56:29;;;;;;;75.57;32.20;;;;;;;;;;5117565;28;20036;-83
2022/03/15 03:59:15;;;;;;;94.63;37.90;;;;;;;;;;5117523;28;20392;-83
2022/03/15 04:02:01;;;;;;;86.68;31.63;;;;;;;;;;5117626;28;20040;-83
2022/03/15 04:04:47;;;;;;;71.47;31.33;;;;;;;;;;5118109;28;20380;-83
2022/03/15 04:07:35;;;;;;;102.25;36.13;;;;;;;;;;5138638;28;20063;-83
2022/03/15 04:10:21;;;;;;;72.00;29.17;;;;;;;;;;5136719;28;20408;-83
2022/03/15 04:13:07;;;;;;;87.05;31.55;;;;;;;;;;5119033;28;20043;-83
2022/03/15 04:15:53;;;;;;;81.63;31.38;;;;;;;;;;5102936;28;20400;-82
2022/03/15 04:18:37;;;;;;;68.13;27.25;;;;;;;;;;5116932;28;20032;-84
2022/03/15 04:21:24;;;;;;;68.82;27.15;;;;;;;;;;5102046;28;20048;-83
2022/03/15 04:24:10;;;;;;;59.72;26.38;;;;;;;;;;5117741;28;20035;-83
2022/03/15 04:26:56;;;;;;;64.97;25.33;;;;;;;;;;5116993;28;20048;-83
2022/03/15 04:29:42;;;;;;;64.57;26.27;;;;;;;;;;5117110;28;20035;-83
2022/03/15 04:32:26;;;;;;;56.90;24.55;;;;;;;;;;5117133;28;20392;-82
2022/03/15 04:35:12;;;;;;;46.17;21.75;;;;;;;;;;5116944;28;20043;-82
2022/03/15 04:37:58;;;;;;;45.20;20.33;;;;;;;;;;5116600;28;20421;-82
2022/03/15 04:40:43;;;;;;;46.33;18.95;;;;;;;;;;5116775;28;20051;-81
2022/03/15 04:43:29;;;;;;;38.40;16.52;;;;;;;;;;5116802;28;20040;-83
2022/03/15 04:46:15;;;;;;;36.90;18.65;;;;;;;;;;5116639;28;20044;-82
2022/03/15 04:49:00;;;;;;;36.55;16.52;;;;;;;;;;5132993;28;20047;-80
2022/03/15 04:51:46;;;;;;;57.67;24.17;;;;;;;;;;5130912;28;20047;-83
2022/03/15 04:54:35;;;;;;;56.40;24.52;;;;;;;;;;5117597;28;20051;-82
2022/03/15 04:57:20;;;;;;;67.47;26.80;;;;;;;;;;5100490;28;20408;-83
2022/03/15 05:00:08;;;;;;;53.80;24.35;;;;;;;;;;5116578;28;20040;-82
2022/03/15 05:02:53;;;;;;;58.58;24.58;;;;;;;;;;5116539;28;20043;-81
2022/03/15 05:05:38;;;;;;;61.78;25.40;;;;;;;;;;5116123;28;20043;-82
2022/03/15 05:08:24;;;;;;;68.88;26.00;;;;;;;;;;5116553;28;20051;-82
2022/03/15 05:11:10;;;;;;;65.00;24.25;;;;;;;;;;5116121;28;20044;-82
2022/03/15 05:13:55;;;;;;;68.53;25.45;;;;;;;;;;5115433;28;20388;-83
2022/03/15 05:16:41;;;;;;;56.45;24.50;;;;;;;;;;5115995;28;20043;-83
2022/03/15 05:19:26;;;;;;;61.35;25.95;;;;;;;;;;5115885;28;20392;-83
2022/03/15 05:22:12;;;;;;;78.47;28.40;;;;;;;;;;5115589;28;20051;-83
2022/03/15 05:24:58;;;;;;;60.22;27.38;;;;;;;;;;5115860;28;20473;-82
2022/03/15 05:27:44;;;;;;;75.15;29.92;;;;;;;;;;5107212;28;20396;-82
2022/03/15 05:30:29;;;;;;;68.45;28.38;;;;;;;;;;5100344;28;20392;-82
2022/03/15 05:33:14;;;;;;;69.43;27.40;;;;;;;;;;5114962;28;20043;-83
2022/03/15 05:36:03;;;;;;;64.95;26.63;;;;;;;;;;5115678;28;20048;-83
2022/03/15 05:38:48;;;;;;;82.30;31.13;;;;;;;;;;5115104;28;20040;-82
2022/03/15 05:41:35;;;;;;;126.00;45.40;;;;;;;;;;5107017;28;20488;-83
2022/03/15 05:44:21;;;;;;;108.78;45.35;;;;;;;;;;5115030;28;20039;-82
2022/03/15 05:47:07;;;;;;;110.05;43.05;;;;;;;;;;5092115;28;20035;-82
2022/03/15 05:49:53;;;;;;;90.30;37.22;;;;;;;;;;5114529;28;20039;-82
2022/03/15 05:52:38;;;;;;;89.70;39.63;;;;;;;;;;5114949;28;20036;-84
2022/03/15 05:55:24;;;;;;;80.45;37.80;;;;;;;;;;5115413;28;20480;-83
2022/03/15 05:58:10;;;;;;;90.03;39.30;;;;;;;;;;5114968;28;20036;-84
2022/03/15 06:00:56;;;;;;;86.35;39.20;;;;;;;;;;5099792;28;20036;-83
2022/03/15 06:03:41;;;;;;;92.20;41.00;;;;;;;;;;5099509;28;20036;-84
2022/03/15 06:06:26;;;;;;;87.68;37.83;;;;;;;;;;5099733;28;20043;-84
2022/03/15 06:09:12;;;;;;;80.65;37.63;;;;;;;;;;5099352;28;20055;-83
2022/03/15 06:11:58;;;;;;;88.13;40.67;;;;;;;;;;5099933;28;20039;-83
2022/03/15 06:14:43;;;;;;;87.55;42.60;;;;;;;;;;5114412;28;20051;-84
2022/03/15 06:17:31;;;;;;;81.07;38.72;;;;;;;;;;5114725;28;20035;-82
2022/03/15 06:20:18;;;;;;;92.30;40.72;;;;;;;;;;5106428;28;20044;-82
2022/03/15 06:23:04;;;;;;;84.18;39.67;;;;;;;;;;5114428;28;20047;-82
2022/03/15 06:25:49;;;;;;;87.32;43.17;;;;;;;;;;5114697;28;20040;-82
2022/03/15 06:28:36;;;;;;;79.22;35.28;;;;;;;;;;5114532;28;20047;-81
2022/03/15 06:31:21;;;;;;;89.10;41.05;;;;;;;;;;5115214;28;20043;-82
2022/03/15 06:34:07;;;;;;;109.88;51.53;;;;;;;;;;5114350;28;20040;-81
2022/03/15 06:36:53;;;;;;;124.68;58.80;;;;;;;;;;5099160;28;20043;-82
2022/03/15 06:39:38;;;;;;;183.60;96.68;;;;;;;;;;5092105;28;20043;-81
2022/03/15 06:42:24;;;;;;;124.53;56.15;;;;;;;;;;5099372;28;20040;-82
2022/03/15 06:45:10;;;;;;;131.13;64.32;;;;;;;;;;5099341;28;20040;-82
2022/03/15 06:47:55;;;;;;;103.85;49.38;;;;;;;;;;5114676;28;20400;-81
2022/03/15 06:50:42;;;;;;;105.38;50.83;;;;;;;;;;5114454;28;20044;-83
2022/03/15 06:53:27;;;;;;;103.70;47.83;;;;;;;;;;5098910;28;20044;-82
2022/03/15 06:56:13;;;;;;;110.85;49.70;;;;;;;;;;5114172;28;20051;-83
2022/03/15 06:59:00;;;;;;;105.82;49.63;;;;;;;;;;5120802;28;20039;-83
2022/03/15 07:01:46;;;;;;;103.65;50.67;;;;;;;;;;5112753;28;20044;-83
2022/03/15 07:04:33;;;;;;;85.88;44.63;;;;;;;;;;5115883;28;20055;-84
2022/03/15 07:07:19;;;;;;;86.50;43.75;;;;;;;;;;5134220;28;20051;-84
2022/03/15 07:10:06;;;;;;;86.40;40.95;;;;;;;;;;5114708;28;20488;-85
2022/03/15 07:12:51;;;;;;;87.35;42.28;;;;;;;;;;5114255;28;20040;-85
2022/03/15 07:15:37;;;;;;;89.57;42.15;;;;;;;;;;5113715;28;20039;-83
2022/03/15 07:18:23;;;;;;;98.28;44.58;;;;;;;;;;5112669;28;20047;-85
2022/03/15 07:21:08;;;;;;;106.85;48.25;;;;;;;;;;5140686;28;20039;-85
2022/03/15 07:23:54;;;;;;;83.93;41.97;;;;;;;;;;5136362;28;20055;-84
2022/03/15 07:26:39;;;;;;;98.07;45.25;;;;;;;;;;5104232;28;20113;-87
2022/03/15 07:29:25;;;;;;;89.32;42.92;;;;;;;;;;5103308;28;20047;-85
2022/03/15 07:32:10;;;;;;;105.32;48.47;;;;;;;;;;5118111;28;20484;-85
2022/03/15 07:34:56;;;;;;;96.68;45.30;;;;;;;;;;5118286;28;20039;-82
2022/03/15 07:37:50;;;;;;;107.60;47.95;;;;;;;;;;5117714;28;20396;-84
2022/03/15 07:40:37;;;;;;;96.43;45.28;;;;;;;;;;5117757;28;20044;-83
2022/03/15 07:43:23;;;;;;;154.57;64.00;;;;;;;;;;5117659;28;20040;-84
2022/03/15 07:46:09;;;;;;;129.85;54.42;;;;;;;;;;5117788;28;20048;-84
2022/03/15 07:48:54;;;;;;;111.75;51.13;;;;;;;;;;5117039;28;20051;-84
2022/03/15 07:51:40;;;;;;;87.50;41.90;;;;;;;;;;5109028;28;20043;-85
2022/03/15 07:54:25;;;;;;;87.57;40.65;;;;;;;;;;5117295;28;20043;-84
2022/03/15 07:57:11;;;;;;;103.93;43.05;;;;;;;;;;5101385;28;20048;-84
2022/03/15 07:59:59;;;;;;;90.05;41.67;;;;;;;;;;5117600;28;20047;-85
2022/03/15 08:02:44;;;;;;;88.22;41.78;;;;;;;;;;5117635;28;20051;-85
2022/03/15 08:05:30;;;;;;;78.28;40.53;;;;;;;;;;5117408;28;20040;-83
2022/03/15 08:08:15;;;;;;;91.93;43.05;;;;;;;;;;5102346;28;20035;-84
2022/03/15 08:11:06;;;;;;;82.88;41.67;;;;;;;;;;5094915;28;20492;-83
2022/03/15 08:13:55;;;;;;;63.55;33.22;;;;;;;;;;5094249;27;20488;-83
2022/03/15 08:16:40;;;;;;;49.00;25.52;;;;;;;;;;5117140;28;20043;-84
2022/03/15 08:19:26;;;;;;;36.00;20.08;;;;;;;;;;5117256;28;20047;-83
2022/03/15 08:22:12;;;;;;;40.35;24.38;;;;;;;;;;5108916;28;20051;-82
2022/03/15 08:24:59;;;;;;;43.78;23.80;;;;;;;;;;5115746;28;20047;-83
2022/03/15 08:27:44;;;;;;;46.78;23.55;;;;;;;;;;5115893;28;20039;-84
2022/03/15 08:30:30;;;;;;;51.42;28.15;;;;;;;;;;5116864;28;20043;-83
2022/03/15 08:33:15;;;;;;;56.72;29.15;;;;;;;;;;5116018;28;20048;-82
2022/03/15 08:36:01;;;;;;;57.30;28.77;;;;;;;;;;5116951;28;20039;-84
2022/03/15 08:38:48;;;;;;;51.80;30.58;;;;;;;;;;5117035;28;20043;-84
2022/03/15 08:41:33;;;;;;;43.50;25.23;;;;;;;;;;5101679;28;20052;-84
2022/03/15 08:44:20;;;;;;;45.63;23.83;;;;;;;;;;5116937;28;20473;-83
2022/03/15 08:47:07;;;;;;;43.05;23.13;;;;;;;;;;5116582;28;20469;-84
2022/03/15 08:49:52;;;;;;;41.65;22.92;;;;;;;;;;5107995;28;20039;-83
2022/03/15 08:52:37;;;;;;;35.30;20.58;;;;;;;;;;5110042;28;20039;-83
2022/03/15 08:55:25;;;;;;;60.85;31.27;;;;;;;;;;5116365;28;20051;-83
2022/03/15 08:58:11;;;;;;;27.60;14.93;;;;;;;;;;5116597;28;20035;-79
2022/03/15 09:00:56;;;;;;;125.38;63.45;;;;;;;;;;5116380;28;20047;-79
2022/03/15 09:03:42;;;;;;;31.75;14.98;;;;;;;;;;5116293;28;20031;-80
2022/03/15 09:06:28;;;;;;;22.95;11.60;;;;;;;;;;5116427;28;20047;-81
2022/03/15 09:09:18;;;;;;;29.48;17.75;;;;;;;;;;5116198;28;20055;-80
2022/03/15 09:12:05;;;;;;;33.13;16.70;;;;;;;;;;5116122;28;20051;-79
2022/03/15 09:14:50;;;;;;;34.38;18.60;;;;;;;;;;5115726;28;20048;-77
2022/03/15 09:17:36;;;;;;;36.58;20.25;;;;;;;;;;5122783;28;20388;-81
2022/03/15 09:20:21;;;;;;;34.60;19.10;;;;;;;;;;5093407;28;20047;-78
2022/03/15 09:23:07;;;;;;;46.58;23.10;;;;;;;;;;5121565;28;20051;-78
2022/03/15 09:25:53;;;;;;;40.92;21.45;;;;;;;;;;5129023;28;20066;-78
2022/03/15 09:28:38;;;;;;;66.95;32.50;;;;;;;;;;5122437;28;20044;-78
2022/03/15 09:31:24;;;;;;;32.67;20.08;;;;;;;;;;5122505;28;20484;-78
2022/03/15 09:34:09;;;;;;;54.05;30.00;;;;;;;;;;5115734;28;20396;-78
2022/03/15 09:36:55;;;;;;;31.73;18.50;;;;;;;;;;5115600;28;20043;-77
2022/03/15 09:39:41;;;;;;;34.03;19.40;;;;;;;;;;5115253;28;20039;-78
2022/03/15 09:42:29;;;;;;;33.33;16.58;;;;;;;;;;5122309;28;20039;-77
2022/03/15 09:45:20;;;;;;;113.43;55.72;;;;;;;;;;5114330;28;20043;-78
2022/03/15 09:48:13;;;;;;;40.33;24.17;;;;;;;;;;5122224;28;20044;-77
2022/03/15 09:50:58;;;;;;;107.50;54.38;;;;;;;;;;5115374;28;20415;-81
2022/03/15 09:53:44;;;;;;;27.48;16.52;;;;;;;;;;5114902;28;20051;-80
2022/03/15 09:56:36;;;;;;;25.35;13.77;;;;;;;;;;5106997;28;20385;-79
2022/03/15 09:59:26;;;;;;;20.52;11.35;;;;;;;;;;5121535;28;20056;-81
2022/03/15 10:02:13;;;;;;;35.35;19.75;;;;;;;;;;5115495;28;20477;-80
2022/03/15 10:04:58;;;;;;;32.03;12.55;;;;;;;;;;5115357;28;20047;-80
2022/03/15 10:07:43;;;;;;;21.98;10.98;;;;;;;;;;5115189;28;20047;-81
2022/03/15 10:10:29;;;;;;;20.35;12.02;;;;;;;;;;5122512;28;20043;-80
2022/03/15 10:13:15;;;;;;;20.98;10.68;;;;;;;;;;5115745;28;20051;-79
2022/03/15 10:16:01;;;;;;;23.98;11.80;;;;;;;;;;5120473;28;20044;-78
2022/03/15 10:18:55;;;;;;;27.08;12.77;;;;;;;;;;5115720;28;20035;-79
2022/03/15 10:21:48;;;;;;;24.10;11.88;;;;;;;;;;5114597;28;20040;-79
2022/03/15 10:24:38;;;;;;;22.30;12.10;;;;;;;;;;5114300;28;20047;-78
2022/03/15 10:27:23;;;;;;;27.63;12.80;;;;;;;;;;5113960;28;20056;-77
2022/03/15 10:30:09;;;;;;;27.33;12.07;;;;;;;;;;5114805;28;20049;-79
2022/03/15 10:32:57;;;;;;;18.83;11.43;;;;;;;;;;5113510;28;20388;-78
2022/03/15 10:35:48;;;;;;;20.10;11.85;;;;;;;;;;5120198;28;20065;-79
2022/03/15 10:38:44;;;;;;;26.85;11.60;;;;;;;;;;5120898;28;20047;-77
2022/03/15 10:41:29;;;;;;;19.30;11.45;;;;;;;;;;5114198;28;20040;-76
2022/03/15 10:44:20;;;;;;;25.27;13.23;;;;;;;;;;5114399;28;20044;-76
2022/03/15 10:47:13;;;;;;;30.17;15.38;;;;;;;;;;5114231;28;20039;-77
2022/03/15 10:50:00;;;;;;;25.30;13.70;;;;;;;;;;5114642;28;20047;-78
2022/03/15 10:52:46;;;;;;;25.92;13.32;;;;;;;;;;5114643;28;20051;-77
2022/03/15 10:55:33;;;;;;;24.23;12.82;;;;;;;;;;5113734;28;20047;-76
2022/03/15 10:58:23;;;;;;;21.88;13.55;;;;;;;;;;5113761;28;20043;-77
2022/03/15 11:01:10;;;;;;;86.10;37.65;;;;;;;;;;5114219;28;20043;-78
2022/03/15 11:04:03;;;;;;;31.67;17.55;;;;;;;;;;5114231;28;20045;-79
2022/03/15 11:06:51;;;;;;;22.10;13.25;;;;;;;;;;5104822;28;20035;-79
2022/03/15 11:09:46;;;;;;;30.15;13.68;;;;;;;;;;5105358;28;20401;-79
2022/03/15 11:12:33;;;;;;;30.30;14.73;;;;;;;;;;5113196;28;20047;-80
2022/03/15 11:15:28;;;;;;;25.45;14.18;;;;;;;;;;5113285;28;20047;-79
2022/03/15 11:18:17;;;;;;;37.38;16.50;;;;;;;;;;5113090;28;20054;-78
2022/03/15 11:21:06;;;;;;;31.65;14.13;;;;;;;;;;5114122;28;20044;-77
2022/03/15 11:23:52;;;;;;;23.05;14.70;;;;;;;;;;5114259;28;20048;-77
2022/03/15 11:26:44;;;;;;;37.13;16.77;;;;;;;;;;5105296;28;20035;-77
2022/03/15 11:29:32;;;;;;;26.83;14.50;;;;;;;;;;5120551;28;20048;-78
2022/03/15 11:32:18;;;;;;;28.42;15.27;;;;;;;;;;5113601;28;20040;-76
2022/03/15 11:35:08;;;;;;;28.92;14.93;;;;;;;;;;5113499;28;20516;-76
2022/03/15 11:37:53;;;;;;;28.33;14.85;;;;;;;;;;5120679;28;20040;-76
2022/03/15 11:40:38;;;;;;;30.80;15.18;;;;;;;;;;5120663;28;20039;-76
2022/03/15 11:43:43;;;;;;;38.60;21.30;;;;;;;;;;5132854;28;20043;-78
2022/03/15 11:46:43;;;;;;;26.65;15.32;;;;;;;;;;5116510;28;20047;-78
2022/03/15 11:49:46;;;;;;;67.45;28.90;;;;;;;;;;5121375;28;20039;-79
2022/03/15 11:52:47;;;;;;;26.80;15.48;;;;;;;;;;5113460;28;20040;-77
2022/03/15 11:56:14;;;;;;;33.30;15.30;;;;;;;;;;5113833;28;20044;-78
2022/03/15 11:59:00;;;;;;;29.75;15.82;;;;;;;;;;5111629;28;20504;-79
2022/03/15 12:01:52;;;;;;;32.28;15.00;;;;;;;;;;5119814;28;20488;-78
2022/03/15 12:04:44;;;;;;;34.65;16.67;;;;;;;;;;5113436;28;20032;-78
2022/03/15 12:07:45;;;;;;;25.90;16.42;;;;;;;;;;5113910;28;20043;-79
2022/03/15 12:10:36;;;;;;;28.92;15.68;;;;;;;;;;5116926;28;20047;-80
2022/03/15 12:13:43;;;;;;;28.25;13.65;;;;;;;;;;5117071;28;20044;-79
2022/03/15 12:16:42;;;;;;;23.45;14.40;;;;;;;;;;5117336;28;20055;-78
2022/03/15 12:19:39;;;;;;;29.85;15.35;;;;;;;;;;5117038;28;20396;-77
2022/03/15 12:22:36;;;;;;;24.70;14.63;;;;;;;;;;5116804;28;20040;-79
2022/03/15 12:25:35;;;;;;;30.88;14.75;;;;;;;;;;5124124;28;20039;-82
2022/03/15 12:28:30;;;;;;;26.58;14.52;;;;;;;;;;5116779;28;20051;-78
2022/03/15 12:31:17;;;;;;;20.98;13.95;;;;;;;;;;5116250;28;20044;-78
2022/03/15 12:34:05;;;;;;;24.33;13.38;;;;;;;;;;5116408;28;20484;-77
2022/03/15 12:36:51;;;;;;;26.70;14.43;;;;;;;;;;5116446;28;20039;-76
2022/03/15 12:39:37;;;;;;;27.52;13.93;;;;;;;;;;5116107;28;20044;-76
2022/03/15 12:42:24;;;;;;;23.17;12.68;;;;;;;;;;5116635;28;20476;-76
2022/03/15 12:45:12;;;;;;;19.60;11.70;;;;;;;;;;5123322;28;20039;-75
2022/03/15 12:48:06;;;;;;;18.80;11.52;;;;;;;;;;5116165;28;20043;-76
2022/03/15 12:50:54;;;;;;;197.95;127.35;;;;;;;;;;5115833;28;20055;-76
2022/03/15 12:53:42;;;;;;;24.98;15.43;;;;;;;;;;5124624;28;20044;-76
2022/03/15 12:56:28;;;;;;;23.63;12.50;;;;;;;;;;5121121;28;20036;-76
2022/03/15 12:59:31;;;;;;;27.92;16.90;;;;;;;;;;5118127;28;20400;-75
2022/03/15 13:02:18;;;;;;;21.92;12.50;;;;;;;;;;5099898;28;20359;-76
2022/03/15 13:05:15;;;;;;;22.80;13.10;;;;;;;;;;5120714;28;20051;-75
2022/03/15 13:08:03;;;;;;;19.55;11.80;;;;;;;;;;5114003;28;20415;-75
2022/03/15 13:10:50;;;;;;;22.90;12.05;;;;;;;;;;5114583;28;20036;-75
2022/03/15 13:13:35;;;;;;;22.58;11.50;;;;;;;;;;5116109;28;20052;-75
2022/03/15 13:16:22;;;;;;;17.63;11.52;;;;;;;;;;5115694;28;20039;-77
2022/03/15 13:19:10;;;;;;;17.05;10.50;;;;;;;;;;5115382;28;20047;-76
2022/03/15 13:21:56;;;;;;;19.83;10.98;;;;;;;;;;5122225;28;20055;-76
2022/03/15 13:24:43;;;;;;;21.75;10.85;;;;;;;;;;5115757;28;20051;-76
2022/03/15 13:27:39;;;;;;;23.10;11.77;;;;;;;;;;5115581;28;20414;-77
2022/03/15 13:30:25;;;;;;;17.70;10.48;;;;;;;;;;5116227;28;20047;-76
2022/03/15 13:33:14;;;;;;;18.00;10.27;;;;;;;;;;5115028;28;20055;-76
2022/03/15 13:36:21;;;;;;;21.45;11.45;;;;;;;;;;5121891;28;20043;-77
2022/03/15 13:39:08;;;;;;;21.23;10.77;;;;;;;;;;5115170;28;20052;-76
2022/03/15 13:41:58;;;;;;;22.77;11.10;;;;;;;;;;5115435;28;20035;-76
2022/03/15 13:44:50;;;;;;;20.00;10.50;;;;;;;;;;5115288;28;20040;-76
2022/03/15 13:47:35;;;;;;;20.33;11.20;;;;;;;;;;5114693;28;20043;-76
2022/03/15 13:50:23;;;;;;;17.50;10.65;;;;;;;;;;5122335;28;20048;-76
2022/03/15 13:53:17;;;;;;;19.48;8.52;;;;;;;;;;5115452;28;20039;-76
2022/03/15 13:56:13;;;;;;;17.63;9.27;;;;;;;;;;5115609;28;20043;-76
2022/03/15 13:59:03;;;;;;;15.18;9.70;;;;;;;;;;5115176;28;20043;-76
2022/03/15 14:01:58;;;;;;;17.85;8.95;;;;;;;;;;5115640;28;20044;-77
2022/03/15 14:04:44;;;;;;;14.52;7.90;;;;;;;;;;5119392;28;20040;-77
2022/03/15 14:07:29;;;;;;;13.70;7.60;;;;;;;;;;5121548;28;20460;-76
2022/03/15 14:10:18;;;;;;;16.48;8.68;;;;;;;;;;5121903;28;20051;-77
2022/03/15 14:13:13;;;;;;;18.48;8.90;;;;;;;;;;5114845;28;20044;-76
2022/03/15 14:16:08;;;;;;;19.05;8.00;;;;;;;;;;5114126;28;20055;-80
2022/03/15 14:18:54;;;;;;;12.43;6.75;;;;;;;;;;5114740;28;20489;-79
2022/03/15 14:21:42;;;;;;;14.23;6.47;;;;;;;;;;5121519;28;20052;-78
2022/03/15 14:24:28;;;;;;;17.85;8.05;;;;;;;;;;5114378;28;20043;-79
2022/03/15 14:27:14;;;;;;;17.48;7.93;;;;;;;;;;5114903;28;20039;-77
2022/03/15 14:30:02;;;;;;;13.77;7.25;;;;;;;;;;5121170;28;20043;-77
2022/03/15 14:32:56;;;;;;;13.18;7.15;;;;;;;;;;5114338;28;20048;-77
2022/03/15 14:35:43;;;;;;;;;;;;;;;;;;5114753;28;20040;-76
2022/03/15 14:38:36;;;;;;;;;;;;;;;;;;5115015;28;20253;-77
2022/03/15 14:41:21;;;;;;;47.78;23.77;;;;;;;;;;5114305;28;19920;-77
2022/03/15 14:44:07;;;;;;;27.15;16.60;;;;;;;;;;5114161;28;20039;-76
2022/03/15 14:46:54;;;;;;;17.67;11.70;;;;;;;;;;5121503;28;20043;-76
2022/03/15 14:49:41;;;;;;;39.25;23.33;;;;;;;;;;5114224;28;20477;-76
2022/03/15 14:52:27;;;;;;;43.78;27.27;;;;;;;;;;5114884;28;20376;-76
2022/03/15 14:55:15;;;;;;;14.40;7.65;;;;;;;;;;5114405;28;20035;-76
2022/03/15 14:58:01;;;;;;;18.00;9.52;;;;;;;;;;5114533;28;20044;-76
2022/03/15 15:00:54;;;;;;;22.08;8.88;;;;;;;;;;5121274;28;20044;-75
2022/03/15 15:03:40;;;;;;;13.52;8.82;;;;;;;;;;5114414;28;20051;-77
2022/03/15 15:06:25;;;;;;;20.45;13.18;;;;;;;;;;5120971;28;20043;-76
2022/03/15 15:09:12;;;;;;;29.80;16.38;;;;;;;;;;5120535;28;20044;-78
2022/03/15 15:12:03;;;;;;;20.42;12.75;;;;;;;;;;5113987;28;20036;-78
2022/03/15 15:14:50;;;;;;;26.42;11.63;;;;;;;;;;5113471;28;20051;-79
2022/03/15 15:17:36;;;;;;;30.00;17.52;;;;;;;;;;5120628;28;20035;-79
2022/03/15 15:20:29;;;;;;;24.00;15.13;;;;;;;;;;5113836;28;20043;-79
2022/03/15 15:23:16;;;;;;;22.15;12.10;;;;;;;;;;5105566;28;20043;-79
2022/03/15 15:26:04;;;;;;;24.45;14.88;;;;;;;;;;5120511;28;20516;-80
2022/03/15 15:29:00;;;;;;;24.10;11.02;;;;;;;;;;5120676;28;20039;-81
2022/03/15 15:31:55;;;;;;;13.40;8.95;;;;;;;;;;5113633;28;20032;-80
2022/03/15 15:34:45;;;;;;;16.23;9.05;;;;;;;;;;5091088;28;20043;-80
2022/03/15 15:37:31;;;;;;;25.98;15.88;;;;;;;;;;5114110;28;20040;-80
2022/03/15 15:40:20;;;;;;;18.98;11.23;;;;;;;;;;5122372;28;20047;-80
2022/03/15 15:43:06;;;;;;;22.95;12.23;;;;;;;;;;5127326;28;20039;-80
2022/03/15 15:45:54;;;;;;;38.60;22.27;;;;;;;;;;5124140;28;20031;-78
2022/03/15 15:48:39;;;;;;;36.13;20.67;;;;;;;;;;5117810;28;20048;-79
2022/03/15 15:51:27;;;;;;;31.10;19.90;;;;;;;;;;5117845;28;20048;-77
2022/03/15 15:54:14;;;;;;;32.92;18.70;;;;;;;;;;5124560;28;20036;-79
2022/03/15 15:56:59;;;;;;;32.78;20.75;;;;;;;;;;5117743;28;20044;-78
2022/03/15 15:59:44;;;;;;;37.10;20.65;;;;;;;;;;5124064;28;20040;-79
2022/03/15 16:02:30;;;;;;;37.38;21.33;;;;;;;;;;5117841;28;20051;-79
2022/03/15 16:05:20;;;;;;;36.05;21.00;;;;;;;;;;5117343;28;20043;-78
2022/03/15 16:08:07;;;;;;;36.90;22.73;;;;;;;;;;5124289;28;20039;-78
2022/03/15 16:10:53;;;;;;;39.38;25.00;;;;;;;;;;5117679;28;20044;-77
2022/03/15 16:13:38;;;;;;;43.17;25.85;;;;;;;;;;5123859;28;20035;-81